PWSweather.com
Personal Weather Stations
Station Observations
KMAWOBUR2
West Side, Woburn, MA 01801

West SideWoburn, MA 01801

Lat: 42.458, Lon: -71.1955

Elevation: 160

Station Type: DAVIS/Vantage Pro2

http://pauland.net

Latest ConditionsUpdated 9:25:06 PM GMT Thursday, Apr 17, 2014
Currently Today's Max Today's Min Today's Average
Temperature 38.3°F3.5°C 43.2°F6.2°C 26.9°F-2.8°C 34.3°F1.3°C
Dew Point 24.4°F-4.2°C 26.2°F-3.2°C 14.7°F-9.6°C 19.8°F-6.8°C
Winds 5.0 mph SE8.0 kmh SE 15.0 mph ESE24.1 kmh ESE - 2.8 mph 4.5 kmh
Wind Gusts 12.0 mph19.3 kmh 19.0 mph30.6 kmh - -
Humidity 57% 68% 41% 56%
Pressure 30.72 in1040.3 mb 30.78 in1042.3 mb 30.48 in1032.2 mb -
Precipitation - 0.01 in0.3 mm - -
Hour Temp Dew Point Humidity Winds Wind Gusts Pressure Precip Precip Rate Daily Precip Total
09:25 PM 38.3°F3.5°C 24.4°F-4.2°C 57% 5.0 mph SE8.0 kmh SE 12.0 mph19.3 kmh 30.72 in1040.3 mb 0.00 in0.0 mm 0.00 in/hr0.0 mm/hr 0.01 in0.3 mm
09:20 PM 38.6°F3.7°C 23.8°F-4.6°C 55% 5.0 mph ENE8.0 kmh ENE 13.0 mph20.9 kmh 30.72 in1040.3 mb 0.00 in0.0 mm 0.00 in/hr0.0 mm/hr 0.01 in0.3 mm
09:15 PM 38.8°F3.8°C 24.8°F-4.0°C 57% 6.0 mph ESE9.7 kmh ESE 12.0 mph19.3 kmh 30.72 in1040.3 mb 0.00 in0.0 mm 0.00 in/hr0.0 mm/hr 0.01 in0.3 mm
09:10 PM 38.8°F3.8°C 24.4°F-4.2°C 56% 11.0 mph ESE17.7 kmh ESE 11.0 mph17.7 kmh 30.73 in1040.6 mb 0.00 in0.0 mm 0.00 in/hr0.0 mm/hr 0.01 in0.3 mm
09:05 PM 39.1°F3.9°C 24.7°F-4.1°C 56% 10.0 mph E16.1 kmh E 13.0 mph20.9 kmh 30.73 in1040.6 mb 0.00 in0.0 mm 0.00 in/hr0.0 mm/hr 0.01 in0.3 mm
09:00 PM 38.8°F3.8°C 24.8°F-4.0°C 57% Calm Calm 9.0 mph14.5 kmh 30.73 in1040.6 mb 0.00 in0.0 mm 0.00 in/hr0.0 mm/hr 0.01 in0.3 mm
08:55 PM 39.1°F3.9°C 24.7°F-4.1°C 56% 3.0 mph ENE4.8 kmh ENE 12.0 mph19.3 kmh 30.73 in1040.6 mb 0.00 in0.0 mm 0.00 in/hr0.0 mm/hr 0.01 in0.3 mm
08:50 PM 39.5°F4.2°C 25.1°F-3.8°C 56% 3.0 mph SE4.8 kmh SE 12.0 mph19.3 kmh 30.73 in1040.6 mb 0.00 in0.0 mm 0.00 in/hr0.0 mm/hr 0.01 in0.3 mm
08:45 PM 39.8°F4.3°C 25.8°F-3.4°C 57% 3.0 mph ENE4.8 kmh ENE 10.0 mph16.1 kmh 30.73 in1040.6 mb 0.00 in0.0 mm 0.00 in/hr0.0 mm/hr 0.01 in0.3 mm
08:40 PM 39.8°F4.3°C 24.9°F-3.9°C 55% 1.0 mph NE1.6 kmh NE 11.0 mph17.7 kmh 30.73 in1040.6 mb 0.00 in0.0 mm 0.00 in/hr0.0 mm/hr 0.01 in0.3 mm
08:35 PM 39.8°F4.3°C 25.3°F-3.7°C 56% 8.0 mph SE12.9 kmh SE 9.0 mph14.5 kmh 30.73 in1040.6 mb 0.00 in0.0 mm 0.00 in/hr0.0 mm/hr 0.01 in0.3 mm
08:30 PM 40.1°F4.5°C 25.2°F-3.8°C 55% 8.0 mph SE12.9 kmh SE 13.0 mph20.9 kmh 30.73 in1040.6 mb 0.00 in0.0 mm 0.00 in/hr0.0 mm/hr 0.01 in0.3 mm
08:25 PM 40.2°F4.6°C 25.3°F-3.7°C 55% 3.0 mph E4.8 kmh E 12.0 mph19.3 kmh 30.73 in1040.6 mb 0.00 in0.0 mm 0.00 in/hr0.0 mm/hr 0.01 in0.3 mm
08:20 PM 40.1°F4.5°C 25.2°F-3.8°C 55% 2.0 mph SE3.2 kmh SE 14.0 mph22.5 kmh 30.73 in1040.6 mb 0.00 in0.0 mm 0.00 in/hr0.0 mm/hr 0.01 in0.3 mm
08:15 PM 39.8°F4.3°C 25.8°F-3.4°C 57% 1.0 mph ESE1.6 kmh ESE 13.0 mph20.9 kmh 30.73 in1040.6 mb 0.00 in0.0 mm 0.00 in/hr0.0 mm/hr 0.01 in0.3 mm
08:10 PM 40.5°F4.7°C 25.6°F-3.6°C 55% 5.0 mph SSE8.0 kmh SSE 14.0 mph22.5 kmh 30.73 in1040.6 mb 0.00 in0.0 mm 0.00 in/hr0.0 mm/hr 0.01 in0.3 mm
08:05 PM 40.5°F4.7°C 25.6°F-3.6°C 55% 9.0 mph ESE14.5 kmh ESE 10.0 mph16.1 kmh 30.73 in1040.6 mb 0.00 in0.0 mm 0.00 in/hr0.0 mm/hr 0.01 in0.3 mm
08:00 PM 40.2°F4.6°C 24.4°F-4.2°C 53% 3.0 mph NE4.8 kmh NE 10.0 mph16.1 kmh 30.73 in1040.6 mb 0.00 in0.0 mm 0.00 in/hr0.0 mm/hr 0.01 in0.3 mm
07:55 PM 40.5°F4.7°C 25.6°F-3.6°C 55% 2.0 mph SE3.2 kmh SE 17.0 mph27.4 kmh 30.73 in1040.6 mb 0.00 in0.0 mm 0.00 in/hr0.0 mm/hr 0.01 in0.3 mm
07:50 PM 41.2°F5.1°C 25.8°F-3.4°C 54% 9.0 mph ESE14.5 kmh ESE 15.0 mph24.1 kmh 30.73 in1040.6 mb 0.00 in0.0 mm 0.00 in/hr0.0 mm/hr 0.01 in0.3 mm
07:45 PM 41.2°F5.1°C 26.2°F-3.2°C 55% 3.0 mph SE4.8 kmh SE 11.0 mph17.7 kmh 30.73 in1040.6 mb 0.00 in0.0 mm 0.00 in/hr0.0 mm/hr 0.01 in0.3 mm
07:40 PM 40.8°F4.9°C 25.0°F-3.9°C 53% 5.0 mph NE8.0 kmh NE 14.0 mph22.5 kmh 30.73 in1040.6 mb 0.00 in0.0 mm 0.00 in/hr0.0 mm/hr 0.01 in0.3 mm
07:35 PM 41.3°F5.2°C 25.4°F-3.7°C 53% 5.0 mph SSE8.0 kmh SSE 12.0 mph19.3 kmh 30.73 in1040.6 mb 0.00 in0.0 mm 0.00 in/hr0.0 mm/hr 0.01 in0.3 mm
07:30 PM 40.9°F4.9°C 25.9°F-3.4°C 55% 2.0 mph SSE3.2 kmh SSE 14.0 mph22.5 kmh 30.73 in1040.6 mb 0.00 in0.0 mm 0.00 in/hr0.0 mm/hr 0.01 in0.3 mm
07:25 PM 41.1°F5.1°C 25.2°F-3.8°C 53% 7.0 mph SE11.3 kmh SE 18.0 mph29.0 kmh 30.74 in1041.0 mb 0.00 in0.0 mm 0.00 in/hr0.0 mm/hr 0.01 in0.3 mm
07:20 PM 40.9°F4.9°C 25.9°F-3.4°C 55% 4.0 mph SE6.4 kmh SE 15.0 mph24.1 kmh 30.74 in1041.0 mb 0.00 in0.0 mm 0.00 in/hr0.0 mm/hr 0.01 in0.3 mm
07:15 PM 40.8°F4.9°C 24.0°F-4.4°C 51% 7.0 mph E11.3 kmh E 14.0 mph22.5 kmh 30.74 in1041.0 mb 0.00 in0.0 mm 0.00 in/hr0.0 mm/hr 0.01 in0.3 mm
07:10 PM 40.6°F4.8°C 25.2°F-3.8°C 54% 5.0 mph E8.0 kmh E 13.0 mph20.9 kmh 30.74 in1041.0 mb 0.00 in0.0 mm 0.00 in/hr0.0 mm/hr 0.01 in0.3 mm
07:05 PM 40.9°F4.9°C 24.6°F-4.1°C 52% 2.0 mph NE3.2 kmh NE 12.0 mph19.3 kmh 30.74 in1041.0 mb 0.00 in0.0 mm 0.00 in/hr0.0 mm/hr 0.01 in0.3 mm
07:00 PM 40.9°F4.9°C 24.6°F-4.1°C 52% 5.0 mph SE8.0 kmh SE 13.0 mph20.9 kmh 30.74 in1041.0 mb 0.00 in0.0 mm 0.00 in/hr0.0 mm/hr 0.01 in0.3 mm
06:55 PM 41.5°F5.3°C 24.2°F-4.3°C 50% 4.0 mph SE6.4 kmh SE 15.0 mph24.1 kmh 30.74 in1041.0 mb 0.00 in0.0 mm 0.00 in/hr0.0 mm/hr 0.01 in0.3 mm
06:50 PM 42.1°F5.6°C 23.8°F-4.6°C 48% 10.0 mph NE16.1 kmh NE 13.0 mph20.9 kmh 30.74 in1041.0 mb 0.00 in0.0 mm 0.00 in/hr0.0 mm/hr 0.01 in0.3 mm
06:45 PM 42.8°F6.0°C 24.4°F-4.2°C 48% 7.0 mph E11.3 kmh E 10.0 mph16.1 kmh 30.74 in1041.0 mb 0.00 in0.0 mm 0.00 in/hr0.0 mm/hr 0.01 in0.3 mm
06:40 PM 42.6°F5.9°C 23.2°F-4.9°C 46% 5.0 mph N8.0 kmh N 11.0 mph17.7 kmh 30.74 in1041.0 mb 0.00 in0.0 mm 0.00 in/hr0.0 mm/hr 0.01 in0.3 mm
06:35 PM 42.9°F6.1°C 24.0°F-4.4°C 47% 3.0 mph N4.8 kmh N 9.0 mph14.5 kmh 30.74 in1041.0 mb 0.00 in0.0 mm 0.00 in/hr0.0 mm/hr 0.01 in0.3 mm
06:30 PM 42.9°F6.1°C 25.0°F-3.9°C 49% 3.0 mph NNE4.8 kmh NNE 13.0 mph20.9 kmh 30.74 in1041.0 mb 0.00 in0.0 mm 0.00 in/hr0.0 mm/hr 0.01 in0.3 mm
06:25 PM 43.1°F6.2°C 24.2°F-4.3°C 47% 8.0 mph E12.9 kmh E 10.0 mph16.1 kmh 30.74 in1041.0 mb 0.00 in0.0 mm 0.00 in/hr0.0 mm/hr 0.01 in0.3 mm
06:20 PM 42.5°F5.8°C 24.7°F-4.1°C 49% 1.0 mph E1.6 kmh E 11.0 mph17.7 kmh 30.74 in1041.0 mb 0.00 in0.0 mm 0.00 in/hr0.0 mm/hr 0.01 in0.3 mm
06:15 PM 42.2°F5.7°C 25.8°F-3.4°C 52% 6.0 mph SSE9.7 kmh SSE 15.0 mph24.1 kmh 30.74 in1041.0 mb 0.00 in0.0 mm 0.00 in/hr0.0 mm/hr 0.01 in0.3 mm
06:10 PM 43.2°F6.2°C 24.8°F-4.0°C 48% 10.0 mph ENE16.1 kmh ENE 10.0 mph16.1 kmh 30.75 in1041.3 mb 0.00 in0.0 mm 0.00 in/hr0.0 mm/hr 0.01 in0.3 mm
06:05 PM 42.6°F5.9°C 23.7°F-4.6°C 47% 4.0 mph ENE6.4 kmh ENE 10.0 mph16.1 kmh 30.75 in1041.3 mb 0.00 in0.0 mm 0.00 in/hr0.0 mm/hr 0.01 in0.3 mm
06:00 PM 41.6°F5.3°C 23.8°F-4.6°C 49% 7.0 mph NE11.3 kmh NE 13.0 mph20.9 kmh 30.75 in1041.3 mb 0.00 in0.0 mm 0.00 in/hr0.0 mm/hr 0.01 in0.3 mm
05:55 PM 41.5°F5.3°C 22.7°F-5.2°C 47% 5.0 mph ENE8.0 kmh ENE 14.0 mph22.5 kmh 30.75 in1041.3 mb 0.00 in0.0 mm 0.00 in/hr0.0 mm/hr 0.01 in0.3 mm
05:50 PM 42.3°F5.7°C 25.0°F-3.9°C 50% 6.0 mph E9.7 kmh E 13.0 mph20.9 kmh 30.75 in1041.3 mb 0.00 in0.0 mm 0.00 in/hr0.0 mm/hr 0.01 in0.3 mm
05:45 PM 42.8°F6.0°C 23.4°F-4.8°C 46% 3.0 mph E4.8 kmh E 12.0 mph19.3 kmh 30.75 in1041.3 mb 0.00 in0.0 mm 0.00 in/hr0.0 mm/hr 0.01 in0.3 mm
05:40 PM 42.5°F5.8°C 22.1°F-5.5°C 44% 2.0 mph NE3.2 kmh NE 16.0 mph25.7 kmh 30.75 in1041.3 mb 0.00 in0.0 mm 0.00 in/hr0.0 mm/hr 0.01 in0.3 mm
05:35 PM 42.6°F5.9°C 23.2°F-4.9°C 46% 7.0 mph E11.3 kmh E 8.0 mph12.9 kmh 30.75 in1041.3 mb 0.00 in0.0 mm 0.00 in/hr0.0 mm/hr 0.01 in0.3 mm
05:30 PM 42.1°F5.6°C 22.8°F-5.1°C 46% Calm Calm 11.0 mph17.7 kmh 30.75 in1041.3 mb 0.00 in0.0 mm 0.00 in/hr0.0 mm/hr 0.01 in0.3 mm
05:25 PM 41.1°F5.1°C 24.3°F-4.3°C 51% 3.0 mph NE4.8 kmh NE 13.0 mph20.9 kmh 30.76 in1041.7 mb 0.00 in0.0 mm 0.00 in/hr0.0 mm/hr 0.01 in0.3 mm
05:20 PM 41.6°F5.3°C 21.8°F-5.7°C 45% 5.0 mph E8.0 kmh E 12.0 mph19.3 kmh 30.76 in1041.7 mb 0.00 in0.0 mm 0.00 in/hr0.0 mm/hr 0.01 in0.3 mm
05:15 PM 41.1°F5.1°C 22.9°F-5.1°C 48% 5.0 mph ENE8.0 kmh ENE 13.0 mph20.9 kmh 30.76 in1041.7 mb 0.00 in0.0 mm 0.00 in/hr0.0 mm/hr 0.01 in0.3 mm
05:10 PM 40.6°F4.8°C 22.9°F-5.1°C 49% 12.0 mph SE19.3 kmh SE 13.0 mph20.9 kmh 30.76 in1041.7 mb 0.00 in0.0 mm 0.00 in/hr0.0 mm/hr 0.01 in0.3 mm
05:05 PM 41.6°F5.3°C 22.3°F-5.4°C 46% 8.0 mph ESE12.9 kmh ESE 18.0 mph29.0 kmh 30.76 in1041.7 mb 0.00 in0.0 mm 0.00 in/hr0.0 mm/hr 0.01 in0.3 mm
05:00 PM 41.9°F5.5°C 23.1°F-4.9°C 47% 7.0 mph E11.3 kmh E 8.0 mph12.9 kmh 30.76 in1041.7 mb 0.00 in0.0 mm 0.00 in/hr0.0 mm/hr 0.01 in0.3 mm
04:55 PM 40.3°F4.6°C 20.6°F-6.3°C 45% 5.0 mph ENE8.0 kmh ENE 18.0 mph29.0 kmh 30.77 in1042.0 mb 0.00 in0.0 mm 0.00 in/hr0.0 mm/hr 0.01 in0.3 mm
04:50 PM 41.2°F5.1°C 23.0°F-5.0°C 48% 7.0 mph NE11.3 kmh NE 17.0 mph27.4 kmh 30.77 in1042.0 mb 0.00 in0.0 mm 0.00 in/hr0.0 mm/hr 0.01 in0.3 mm
04:45 PM 41.8°F5.4°C 23.5°F-4.7°C 48% 4.0 mph SE6.4 kmh SE 14.0 mph22.5 kmh 30.77 in1042.0 mb 0.00 in0.0 mm 0.00 in/hr0.0 mm/hr 0.01 in0.3 mm
04:40 PM 41.9°F5.5°C 22.1°F-5.5°C 45% 4.0 mph NE6.4 kmh NE 14.0 mph22.5 kmh 30.77 in1042.0 mb 0.00 in0.0 mm 0.00 in/hr0.0 mm/hr 0.01 in0.3 mm
04:35 PM 40.9°F4.9°C 22.2°F-5.4°C 47% 3.0 mph NNE4.8 kmh NNE 17.0 mph27.4 kmh 30.77 in1042.0 mb 0.00 in0.0 mm 0.00 in/hr0.0 mm/hr 0.01 in0.3 mm
04:30 PM 41.3°F5.2°C 22.6°F-5.2°C 47% 15.0 mph ESE24.1 kmh ESE 15.0 mph24.1 kmh 30.77 in1042.0 mb 0.00 in0.0 mm 0.00 in/hr0.0 mm/hr 0.01 in0.3 mm
04:25 PM 41.8°F5.4°C 22.5°F-5.3°C 46% 8.0 mph NNE12.9 kmh NNE 13.0 mph20.9 kmh 30.77 in1042.0 mb 0.00 in0.0 mm 0.00 in/hr0.0 mm/hr 0.01 in0.3 mm
04:20 PM 41.1°F5.1°C 21.9°F-5.6°C 46% 4.0 mph NE6.4 kmh NE 10.0 mph16.1 kmh 30.77 in1042.0 mb 0.00 in0.0 mm 0.00 in/hr0.0 mm/hr 0.01 in0.3 mm
04:15 PM 40.3°F4.6°C 21.1°F-6.1°C 46% 5.0 mph NE8.0 kmh NE 15.0 mph24.1 kmh 30.77 in1042.0 mb 0.00 in0.0 mm 0.00 in/hr0.0 mm/hr 0.01 in0.3 mm
04:10 PM 41.3°F5.2°C 23.5°F-4.7°C 49% 5.0 mph NE8.0 kmh NE 14.0 mph22.5 kmh 30.77 in1042.0 mb 0.00 in0.0 mm 0.00 in/hr0.0 mm/hr 0.01 in0.3 mm
04:05 PM 41.1°F5.1°C 21.9°F-5.6°C 46% 6.0 mph N9.7 kmh N 14.0 mph22.5 kmh 30.77 in1042.0 mb 0.00 in0.0 mm 0.00 in/hr0.0 mm/hr 0.01 in0.3 mm
04:00 PM 40.8°F4.9°C 22.6°F-5.2°C 48% 5.0 mph NNW8.0 kmh NNW 17.0 mph27.4 kmh 30.77 in1042.0 mb 0.00 in0.0 mm 0.00 in/hr0.0 mm/hr 0.01 in0.3 mm
03:55 PM 40.6°F4.8°C 21.9°F-5.6°C 47% 4.0 mph NE6.4 kmh NE 10.0 mph16.1 kmh 30.78 in1042.3 mb 0.00 in0.0 mm 0.00 in/hr0.0 mm/hr 0.01 in0.3 mm
03:50 PM 40.6°F4.8°C 23.9°F-4.5°C 51% 3.0 mph NNE4.8 kmh NNE 17.0 mph27.4 kmh 30.78 in1042.3 mb 0.00 in0.0 mm 0.00 in/hr0.0 mm/hr 0.01 in0.3 mm
03:45 PM 40.6°F4.8°C 20.9°F-6.2°C 45% 8.0 mph E12.9 kmh E 13.0 mph20.9 kmh 30.78 in1042.3 mb 0.00 in0.0 mm 0.00 in/hr0.0 mm/hr 0.01 in0.3 mm
03:40 PM 40.5°F4.7°C 20.8°F-6.2°C 45% 8.0 mph E12.9 kmh E 9.0 mph14.5 kmh 30.78 in1042.3 mb 0.00 in0.0 mm 0.00 in/hr0.0 mm/hr 0.01 in0.3 mm
03:35 PM 40.5°F4.7°C 23.8°F-4.6°C 51% 2.0 mph NW3.2 kmh NW 16.0 mph25.7 kmh 30.78 in1042.3 mb 0.00 in0.0 mm 0.00 in/hr0.0 mm/hr 0.01 in0.3 mm
03:30 PM 40.2°F4.6°C 21.5°F-5.8°C 47% 15.0 mph SE24.1 kmh SE 15.0 mph24.1 kmh 30.78 in1042.3 mb 0.00 in0.0 mm 0.00 in/hr0.0 mm/hr 0.01 in0.3 mm
03:25 PM 41.1°F5.1°C 24.8°F-4.0°C 52% 14.0 mph ESE22.5 kmh ESE 12.0 mph19.3 kmh 30.78 in1042.3 mb 0.00 in0.0 mm 0.00 in/hr0.0 mm/hr 0.01 in0.3 mm
03:20 PM 40.2°F4.6°C 21.0°F-6.1°C 46% 3.0 mph N4.8 kmh N 11.0 mph17.7 kmh 30.78 in1042.3 mb 0.00 in0.0 mm 0.00 in/hr0.0 mm/hr 0.01 in0.3 mm
03:15 PM 40.2°F4.6°C 21.5°F-5.8°C 47% 6.0 mph ESE9.7 kmh ESE 13.0 mph20.9 kmh 30.78 in1042.3 mb 0.00 in0.0 mm 0.00 in/hr0.0 mm/hr 0.01 in0.3 mm
03:10 PM 40.3°F4.6°C 23.1°F-4.9°C 50% 5.0 mph NE8.0 kmh NE 11.0 mph17.7 kmh 30.78 in1042.3 mb 0.00 in0.0 mm 0.00 in/hr0.0 mm/hr 0.01 in0.3 mm
03:05 PM 40.5°F4.7°C 22.3°F-5.4°C 48% 11.0 mph E17.7 kmh E 9.0 mph14.5 kmh 30.78 in1042.3 mb 0.00 in0.0 mm 0.00 in/hr0.0 mm/hr 0.01 in0.3 mm
03:00 PM 39.1°F3.9°C 22.0°F-5.6°C 50% 8.0 mph NE12.9 kmh NE 14.0 mph22.5 kmh 30.78 in1042.3 mb 0.00 in0.0 mm 0.00 in/hr0.0 mm/hr 0.01 in0.3 mm
02:55 PM 38.9°F3.8°C 20.9°F-6.2°C 48% 7.0 mph ENE11.3 kmh ENE 17.0 mph27.4 kmh 30.78 in1042.3 mb 0.00 in0.0 mm 0.00 in/hr0.0 mm/hr 0.01 in0.3 mm
02:50 PM 38.8°F3.8°C 21.7°F-5.7°C 50% 7.0 mph SE11.3 kmh SE 14.0 mph22.5 kmh 30.78 in1042.3 mb 0.00 in0.0 mm 0.00 in/hr0.0 mm/hr 0.01 in0.3 mm
02:45 PM 39.2°F4.0°C 22.6°F-5.2°C 51% 7.0 mph SE11.3 kmh SE 17.0 mph27.4 kmh 30.78 in1042.3 mb 0.00 in0.0 mm 0.00 in/hr0.0 mm/hr 0.01 in0.3 mm
02:40 PM 39.8°F4.3°C 22.2°F-5.4°C 49% 5.0 mph E8.0 kmh E 11.0 mph17.7 kmh 30.78 in1042.3 mb 0.00 in0.0 mm 0.00 in/hr0.0 mm/hr 0.01 in0.3 mm
02:35 PM 39.3°F4.1°C 23.1°F-4.9°C 52% 3.0 mph NNW4.8 kmh NNW 10.0 mph16.1 kmh 30.78 in1042.3 mb 0.00 in0.0 mm 0.00 in/hr0.0 mm/hr 0.01 in0.3 mm
02:30 PM 39.2°F4.0°C 21.6°F-5.8°C 49% 9.0 mph NE14.5 kmh NE 17.0 mph27.4 kmh 30.78 in1042.3 mb 0.00 in0.0 mm 0.00 in/hr0.0 mm/hr 0.01 in0.3 mm
02:25 PM 39.1°F3.9°C 22.0°F-5.6°C 50% 3.0 mph N4.8 kmh N 13.0 mph20.9 kmh 30.78 in1042.3 mb 0.00 in0.0 mm 0.00 in/hr0.0 mm/hr 0.01 in0.3 mm
02:20 PM 38.8°F3.8°C 21.2°F-6.0°C 49% 7.0 mph SE11.3 kmh SE 17.0 mph27.4 kmh 30.78 in1042.3 mb 0.00 in0.0 mm 0.00 in/hr0.0 mm/hr 0.01 in0.3 mm
02:15 PM 39.2°F4.0°C 23.5°F-4.7°C 53% 9.0 mph SE14.5 kmh SE 16.0 mph25.7 kmh 30.78 in1042.3 mb 0.00 in0.0 mm 0.00 in/hr0.0 mm/hr 0.01 in0.3 mm
02:10 PM 38.8°F3.8°C 22.6°F-5.2°C 52% 7.0 mph E11.3 kmh E 14.0 mph22.5 kmh 30.77 in1042.0 mb 0.00 in0.0 mm 0.00 in/hr0.0 mm/hr 0.01 in0.3 mm
02:05 PM 38.6°F3.7°C 22.9°F-5.1°C 53% 9.0 mph E14.5 kmh E 12.0 mph19.3 kmh 30.77 in1042.0 mb 0.00 in0.0 mm 0.00 in/hr0.0 mm/hr 0.01 in0.3 mm
02:00 PM 37.8°F3.2°C 22.6°F-5.2°C 54% 2.0 mph NNE3.2 kmh NNE 13.0 mph20.9 kmh 30.77 in1042.0 mb 0.00 in0.0 mm 0.00 in/hr0.0 mm/hr 0.01 in0.3 mm
01:55 PM 38.3°F3.5°C 21.3°F-5.9°C 50% 8.0 mph ENE12.9 kmh ENE 15.0 mph24.1 kmh 30.78 in1042.3 mb 0.00 in0.0 mm 0.00 in/hr0.0 mm/hr 0.01 in0.3 mm
01:50 PM 38.2°F3.4°C 22.1°F-5.5°C 52% 5.0 mph E8.0 kmh E 11.0 mph17.7 kmh 30.78 in1042.3 mb 0.00 in0.0 mm 0.00 in/hr0.0 mm/hr 0.01 in0.3 mm
01:45 PM 37.3°F2.9°C 22.1°F-5.5°C 54% 2.0 mph N3.2 kmh N 11.0 mph17.7 kmh 30.78 in1042.3 mb 0.00 in0.0 mm 0.00 in/hr0.0 mm/hr 0.01 in0.3 mm
01:40 PM 37.0°F2.8°C 21.0°F-6.1°C 52% 7.0 mph SE11.3 kmh SE 14.0 mph22.5 kmh 30.77 in1042.0 mb 0.00 in0.0 mm 0.00 in/hr0.0 mm/hr 0.01 in0.3 mm
01:35 PM 37.0°F2.8°C 20.5°F-6.4°C 51% 8.0 mph SE12.9 kmh SE 11.0 mph17.7 kmh 30.77 in1042.0 mb 0.00 in0.0 mm 0.00 in/hr0.0 mm/hr 0.01 in0.3 mm
01:30 PM 38.0°F3.3°C 21.0°F-6.1°C 50% 13.0 mph E20.9 kmh E 13.0 mph20.9 kmh 30.77 in1042.0 mb 0.00 in0.0 mm 0.00 in/hr0.0 mm/hr 0.01 in0.3 mm
01:25 PM 37.6°F3.1°C 21.5°F-5.8°C 52% 6.0 mph E9.7 kmh E 19.0 mph30.6 kmh 30.77 in1042.0 mb 0.00 in0.0 mm 0.00 in/hr0.0 mm/hr 0.01 in0.3 mm
01:20 PM 37.5°F3.1°C 20.0°F-6.7°C 49% 9.0 mph E14.5 kmh E 18.0 mph29.0 kmh 30.77 in1042.0 mb 0.01 in0.3 mm 0.00 in/hr0.0 mm/hr 0.01 in0.3 mm
01:15 PM 37.0°F2.8°C 20.5°F-6.4°C 51% 3.0 mph E4.8 kmh E 8.0 mph12.9 kmh 30.77 in1042.0 mb 0.01 in0.3 mm 0.00 in/hr0.0 mm/hr 0.01 in0.3 mm
01:10 PM 37.0°F2.8°C 21.0°F-6.1°C 52% 5.0 mph NNW8.0 kmh NNW 10.0 mph16.1 kmh 30.76 in1041.7 mb 0.01 in0.3 mm 0.00 in/hr0.0 mm/hr 0.01 in0.3 mm
01:05 PM 36.6°F2.6°C 19.2°F-7.1°C 49% 7.0 mph NE11.3 kmh NE 11.0 mph17.7 kmh 30.76 in1041.7 mb 0.01 in0.3 mm 0.00 in/hr0.0 mm/hr 0.01 in0.3 mm
01:00 PM 36.5°F2.5°C 21.0°F-6.1°C 53% 4.0 mph NNE6.4 kmh NNE 12.0 mph19.3 kmh 30.76 in1041.7 mb 0.01 in0.3 mm 0.00 in/hr0.0 mm/hr 0.01 in0.3 mm
12:55 PM 36.2°F2.3°C 19.8°F-6.8°C 51% 8.0 mph E12.9 kmh E 15.0 mph24.1 kmh 30.77 in1042.0 mb 0.01 in0.3 mm 0.00 in/hr0.0 mm/hr 0.01 in0.3 mm
12:50 PM 36.3°F2.4°C 20.8°F-6.2°C 53% 8.0 mph ENE12.9 kmh ENE 11.0 mph17.7 kmh 30.77 in1042.0 mb 0.01 in0.3 mm 0.00 in/hr0.0 mm/hr 0.01 in0.3 mm
12:45 PM 36.3°F2.4°C 21.2°F-6.0°C 54% 6.0 mph NE9.7 kmh NE 11.0 mph17.7 kmh 30.77 in1042.0 mb 0.01 in0.3 mm 0.00 in/hr0.0 mm/hr 0.01 in0.3 mm
12:40 PM 36.0°F2.2°C 20.5°F-6.4°C 53% 4.0 mph E6.4 kmh E 14.0 mph22.5 kmh 30.77 in1042.0 mb 0.01 in0.3 mm 0.00 in/hr0.0 mm/hr 0.01 in0.3 mm
12:35 PM 35.8°F2.1°C 21.2°F-6.0°C 55% 2.0 mph NE3.2 kmh NE 17.0 mph27.4 kmh 30.77 in1042.0 mb 0.01 in0.3 mm 0.00 in/hr0.0 mm/hr 0.01 in0.3 mm
12:30 PM 35.5°F1.9°C 20.9°F-6.2°C 55% 6.0 mph N9.7 kmh N 11.0 mph17.7 kmh 30.77 in1042.0 mb 0.01 in0.3 mm 0.00 in/hr0.0 mm/hr 0.01 in0.3 mm
12:25 PM 34.9°F1.6°C 20.8°F-6.2°C 56% Calm Calm 15.0 mph24.1 kmh 30.76 in1041.7 mb 0.01 in0.3 mm 0.12 in/hr3.0 mm/hr 0.01 in0.3 mm
12:20 PM 34.7°F1.5°C 20.2°F-6.6°C 55% 7.0 mph ESE11.3 kmh ESE 16.0 mph25.7 kmh 30.76 in1041.7 mb 0.00 in0.0 mm 0.00 in/hr0.0 mm/hr 0.00 in0.0 mm
12:15 PM 34.3°F1.3°C 19.8°F-6.8°C 55% 10.0 mph E16.1 kmh E 13.0 mph20.9 kmh 30.76 in1041.7 mb 0.00 in0.0 mm 0.00 in/hr0.0 mm/hr 0.00 in0.0 mm
12:10 PM 34.0°F1.1°C 20.7°F-6.3°C 58% 6.0 mph ENE9.7 kmh ENE 16.0 mph25.7 kmh 30.75 in1041.3 mb 0.00 in0.0 mm 0.00 in/hr0.0 mm/hr 0.00 in0.0 mm
12:05 PM 33.5°F0.8°C 19.9°F-6.7°C 57% 9.0 mph SE14.5 kmh SE 16.0 mph25.7 kmh 30.75 in1041.3 mb 0.00 in0.0 mm 0.00 in/hr0.0 mm/hr 0.00 in0.0 mm
12:00 PM 33.2°F0.7°C 19.2°F-7.1°C 56% 5.0 mph ESE8.0 kmh ESE 13.0 mph20.9 kmh 30.75 in1041.3 mb 0.00 in0.0 mm 0.00 in/hr0.0 mm/hr 0.00 in0.0 mm
11:55 AM 33.2°F0.7°C 19.6°F-6.9°C 57% 9.0 mph E14.5 kmh E 12.0 mph19.3 kmh 30.75 in1041.3 mb 0.00 in0.0 mm 0.00 in/hr0.0 mm/hr 0.00 in0.0 mm
11:50 AM 32.9°F0.5°C 19.7°F-6.8°C 58% 1.0 mph ENE1.6 kmh ENE 9.0 mph14.5 kmh 30.75 in1041.3 mb 0.00 in0.0 mm 0.00 in/hr0.0 mm/hr 0.00 in0.0 mm
11:45 AM 32.7°F0.4°C 19.9°F-6.7°C 59% 2.0 mph NNE3.2 kmh NNE 6.0 mph9.7 kmh 30.75 in1041.3 mb 0.00 in0.0 mm 0.00 in/hr0.0 mm/hr 0.00 in0.0 mm
11:40 AM 32.4°F0.2°C 20.0°F-6.7°C 60% Calm Calm 8.0 mph12.9 kmh 30.75 in1041.3 mb 0.00 in0.0 mm 0.00 in/hr0.0 mm/hr 0.00 in0.0 mm
11:35 AM 32.1°F0.1°C 19.8°F-6.8°C 60% 1.0 mph N1.6 kmh N 8.0 mph12.9 kmh 30.75 in1041.3 mb 0.00 in0.0 mm 0.00 in/hr0.0 mm/hr 0.00 in0.0 mm
11:30 AM 31.6°F-0.2°C 19.7°F-6.8°C 61% 5.0 mph E8.0 kmh E 6.0 mph9.7 kmh 30.75 in1041.3 mb 0.00 in0.0 mm 0.00 in/hr0.0 mm/hr 0.00 in0.0 mm
11:25 AM 31.0°F-0.6°C 19.5°F-6.9°C 62% Calm Calm 4.0 mph6.4 kmh 30.74 in1041.0 mb 0.00 in0.0 mm 0.00 in/hr0.0 mm/hr 0.00 in0.0 mm
11:20 AM 30.4°F-0.9°C 19.3°F-7.1°C 63% 2.0 mph NE3.2 kmh NE 2.0 mph3.2 kmh 30.74 in1041.0 mb 0.00 in0.0 mm 0.00 in/hr0.0 mm/hr 0.00 in0.0 mm
11:15 AM 30.0°F-1.1°C 18.9°F-7.3°C 63% 1.0 mph NE1.6 kmh NE 5.0 mph8.0 kmh 30.74 in1041.0 mb 0.00 in0.0 mm 0.00 in/hr0.0 mm/hr 0.00 in0.0 mm
11:10 AM 29.4°F-1.4°C 18.7°F-7.4°C 64% 1.0 mph NNE1.6 kmh NNE 3.0 mph4.8 kmh 30.74 in1041.0 mb 0.00 in0.0 mm 0.00 in/hr0.0 mm/hr 0.00 in0.0 mm
11:05 AM 29.0°F-1.7°C 18.7°F-7.4°C 65% Calm Calm 3.0 mph4.8 kmh 30.74 in1041.0 mb 0.00 in0.0 mm 0.00 in/hr0.0 mm/hr 0.00 in0.0 mm
11:00 AM 28.4°F-2.0°C 18.5°F-7.5°C 66% 2.0 mph NE3.2 kmh NE 3.0 mph4.8 kmh 30.74 in1041.0 mb 0.00 in0.0 mm 0.00 in/hr0.0 mm/hr 0.00 in0.0 mm
10:55 AM 27.9°F-2.3°C 18.3°F-7.6°C 67% 1.0 mph ENE1.6 kmh ENE 3.0 mph4.8 kmh 30.72 in1040.3 mb 0.00 in0.0 mm 0.00 in/hr0.0 mm/hr 0.00 in0.0 mm
10:50 AM 27.6°F-2.4°C 18.0°F-7.8°C 67% Calm Calm 3.0 mph4.8 kmh 30.72 in1040.3 mb 0.00 in0.0 mm 0.00 in/hr0.0 mm/hr 0.00 in0.0 mm
10:45 AM 27.3°F-2.6°C 18.1°F-7.7°C 68% Calm Calm 1.0 mph1.6 kmh 30.72 in1040.3 mb 0.00 in0.0 mm 0.00 in/hr0.0 mm/hr 0.00 in0.0 mm
10:40 AM 27.0°F-2.8°C 17.8°F-7.9°C 68% Calm Calm 2.0 mph3.2 kmh 30.72 in1040.3 mb 0.00 in0.0 mm 0.00 in/hr0.0 mm/hr 0.00 in0.0 mm
10:35 AM 26.9°F-2.8°C 17.7°F-7.9°C 68% Calm Calm -- 30.72 in1040.3 mb 0.00 in0.0 mm 0.00 in/hr0.0 mm/hr 0.00 in0.0 mm
10:30 AM 26.9°F-2.8°C 17.7°F-7.9°C 68% Calm Calm 1.0 mph1.6 kmh 30.72 in1040.3 mb 0.00 in0.0 mm 0.00 in/hr0.0 mm/hr 0.00 in0.0 mm
10:25 AM 26.9°F-2.8°C 17.7°F-7.9°C 68% Calm Calm 2.0 mph3.2 kmh 30.71 in1040.0 mb 0.00 in0.0 mm 0.00 in/hr0.0 mm/hr 0.00 in0.0 mm
10:20 AM 26.9°F-2.8°C 17.4°F-8.1°C 67% 1.0 mph N1.6 kmh N 2.0 mph3.2 kmh 30.71 in1040.0 mb 0.00 in0.0 mm 0.00 in/hr0.0 mm/hr 0.00 in0.0 mm
10:15 AM 26.9°F-2.8°C 17.4°F-8.1°C 67% Calm Calm 1.0 mph1.6 kmh 30.71 in1040.0 mb 0.00 in0.0 mm 0.00 in/hr0.0 mm/hr 0.00 in0.0 mm
10:10 AM 27.0°F-2.8°C 17.5°F-8.1°C 67% Calm Calm 1.0 mph1.6 kmh 30.71 in1040.0 mb 0.00 in0.0 mm 0.00 in/hr0.0 mm/hr 0.00 in0.0 mm
10:05 AM 27.0°F-2.8°C 17.8°F-7.9°C 68% Calm Calm 3.0 mph4.8 kmh 30.71 in1040.0 mb 0.00 in0.0 mm 0.00 in/hr0.0 mm/hr 0.00 in0.0 mm
10:00 AM 27.0°F-2.8°C 17.5°F-8.1°C 67% Calm Calm 1.0 mph1.6 kmh 30.71 in1040.0 mb 0.00 in0.0 mm 0.00 in/hr0.0 mm/hr 0.00 in0.0 mm
09:55 AM 27.2°F-2.7°C 17.7°F-7.9°C 67% Calm Calm 1.0 mph1.6 kmh 30.70 in1039.6 mb 0.00 in0.0 mm 0.00 in/hr0.0 mm/hr 0.00 in0.0 mm
09:50 AM 27.2°F-2.7°C 17.7°F-7.9°C 67% Calm Calm 4.0 mph6.4 kmh 30.70 in1039.6 mb 0.00 in0.0 mm 0.00 in/hr0.0 mm/hr 0.00 in0.0 mm
09:45 AM 27.2°F-2.7°C 17.7°F-7.9°C 67% Calm Calm -- 30.70 in1039.6 mb 0.00 in0.0 mm 0.00 in/hr0.0 mm/hr 0.00 in0.0 mm
09:40 AM 27.3°F-2.6°C 17.8°F-7.9°C 67% Calm Calm 2.0 mph3.2 kmh 30.69 in1039.3 mb 0.00 in0.0 mm 0.00 in/hr0.0 mm/hr 0.00 in0.0 mm
09:35 AM 27.3°F-2.6°C 17.8°F-7.9°C 67% 1.0 mph NNW1.6 kmh NNW 4.0 mph6.4 kmh 30.69 in1039.3 mb 0.00 in0.0 mm 0.00 in/hr0.0 mm/hr 0.00 in0.0 mm
09:30 AM 27.3°F-2.6°C 17.8°F-7.9°C 67% 2.0 mph NNW3.2 kmh NNW 2.0 mph3.2 kmh 30.69 in1039.3 mb 0.00 in0.0 mm 0.00 in/hr0.0 mm/hr 0.00 in0.0 mm
09:25 AM 27.3°F-2.6°C 17.8°F-7.9°C 67% Calm Calm 2.0 mph3.2 kmh 30.69 in1039.3 mb 0.00 in0.0 mm 0.00 in/hr0.0 mm/hr 0.00 in0.0 mm
09:20 AM 27.3°F-2.6°C 18.1°F-7.7°C 68% Calm Calm -- 30.69 in1039.3 mb 0.00 in0.0 mm 0.00 in/hr0.0 mm/hr 0.00 in0.0 mm
09:15 AM 27.5°F-2.5°C 18.0°F-7.8°C 67% Calm Calm 1.0 mph1.6 kmh 30.69 in1039.3 mb 0.00 in0.0 mm 0.00 in/hr0.0 mm/hr 0.00 in0.0 mm
09:10 AM 27.5°F-2.5°C 18.0°F-7.8°C 67% Calm Calm 3.0 mph4.8 kmh 30.69 in1039.3 mb 0.00 in0.0 mm 0.00 in/hr0.0 mm/hr 0.00 in0.0 mm
09:05 AM 27.5°F-2.5°C 18.0°F-7.8°C 67% 1.0 mph NNW1.6 kmh NNW 2.0 mph3.2 kmh 30.69 in1039.3 mb 0.00 in0.0 mm 0.00 in/hr0.0 mm/hr 0.00 in0.0 mm
09:00 AM 27.5°F-2.5°C 18.0°F-7.8°C 67% Calm Calm 3.0 mph4.8 kmh 30.69 in1039.3 mb 0.00 in0.0 mm 0.00 in/hr0.0 mm/hr 0.00 in0.0 mm
08:55 AM 27.3°F-2.6°C 18.1°F-7.7°C 68% Calm Calm 2.0 mph3.2 kmh 30.69 in1039.3 mb 0.00 in0.0 mm 0.00 in/hr0.0 mm/hr 0.00 in0.0 mm
08:50 AM 27.5°F-2.5°C 18.0°F-7.8°C 67% Calm Calm 1.0 mph1.6 kmh 30.69 in1039.3 mb 0.00 in0.0 mm 0.00 in/hr0.0 mm/hr 0.00 in0.0 mm
08:45 AM 27.5°F-2.5°C 18.0°F-7.8°C 67% Calm Calm 3.0 mph4.8 kmh 30.69 in1039.3 mb 0.00 in0.0 mm 0.00 in/hr0.0 mm/hr 0.00 in0.0 mm
08:40 AM 27.5°F-2.5°C 18.0°F-7.8°C 67% 1.0 mph NE1.6 kmh NE 3.0 mph4.8 kmh 30.68 in1038.9 mb 0.00 in0.0 mm 0.00 in/hr0.0 mm/hr 0.00 in0.0 mm
08:35 AM 27.6°F-2.4°C 17.7°F-7.9°C 66% 1.0 mph NE1.6 kmh NE 2.0 mph3.2 kmh 30.68 in1038.9 mb 0.00 in0.0 mm 0.00 in/hr0.0 mm/hr 0.00 in0.0 mm
08:30 AM 27.8°F-2.3°C 17.9°F-7.8°C 66% Calm Calm 2.0 mph3.2 kmh 30.68 in1038.9 mb 0.00 in0.0 mm 0.00 in/hr0.0 mm/hr 0.00 in0.0 mm
08:25 AM 27.8°F-2.3°C 17.9°F-7.8°C 66% Calm Calm 3.0 mph4.8 kmh 30.68 in1038.9 mb 0.00 in0.0 mm 0.00 in/hr0.0 mm/hr 0.00 in0.0 mm
08:20 AM 27.9°F-2.3°C 17.6°F-8.0°C 65% Calm Calm 2.0 mph3.2 kmh 30.68 in1038.9 mb 0.00 in0.0 mm 0.00 in/hr0.0 mm/hr 0.00 in0.0 mm
08:15 AM 27.9°F-2.3°C 17.6°F-8.0°C 65% 1.0 mph ENE1.6 kmh ENE 3.0 mph4.8 kmh 30.68 in1038.9 mb 0.00 in0.0 mm 0.00 in/hr0.0 mm/hr 0.00 in0.0 mm
08:10 AM 27.9°F-2.3°C 17.6°F-8.0°C 65% Calm Calm 1.0 mph1.6 kmh 30.68 in1038.9 mb 0.00 in0.0 mm 0.00 in/hr0.0 mm/hr 0.00 in0.0 mm
08:05 AM 28.1°F-2.2°C 17.8°F-7.9°C 65% Calm Calm 5.0 mph8.0 kmh 30.68 in1038.9 mb 0.00 in0.0 mm 0.00 in/hr0.0 mm/hr 0.00 in0.0 mm
08:00 AM 28.1°F-2.2°C 17.8°F-7.9°C 65% Calm Calm 2.0 mph3.2 kmh 30.68 in1038.9 mb 0.00 in0.0 mm 0.00 in/hr0.0 mm/hr 0.00 in0.0 mm
07:55 AM 28.1°F-2.2°C 17.5°F-8.1°C 64% Calm Calm 2.0 mph3.2 kmh 30.67 in1038.6 mb 0.00 in0.0 mm 0.00 in/hr0.0 mm/hr 0.00 in0.0 mm
07:50 AM 28.1°F-2.2°C 17.5°F-8.1°C 64% Calm Calm 7.0 mph11.3 kmh 30.67 in1038.6 mb 0.00 in0.0 mm 0.00 in/hr0.0 mm/hr 0.00 in0.0 mm
07:45 AM 28.1°F-2.2°C 17.5°F-8.1°C 64% Calm Calm 3.0 mph4.8 kmh 30.67 in1038.6 mb 0.00 in0.0 mm 0.00 in/hr0.0 mm/hr 0.00 in0.0 mm
07:40 AM 28.1°F-2.2°C 17.5°F-8.1°C 64% 1.0 mph NE1.6 kmh NE 3.0 mph4.8 kmh 30.66 in1038.3 mb 0.00 in0.0 mm 0.00 in/hr0.0 mm/hr 0.00 in0.0 mm
07:35 AM 28.2°F-2.1°C 17.6°F-8.0°C 64% 1.0 mph NE1.6 kmh NE 3.0 mph4.8 kmh 30.66 in1038.3 mb 0.00 in0.0 mm 0.00 in/hr0.0 mm/hr 0.00 in0.0 mm
07:30 AM 28.2°F-2.1°C 17.2°F-8.2°C 63% Calm Calm 5.0 mph8.0 kmh 30.66 in1038.3 mb 0.00 in0.0 mm 0.00 in/hr0.0 mm/hr 0.00 in0.0 mm
07:25 AM 28.2°F-2.1°C 17.2°F-8.2°C 63% Calm Calm 3.0 mph4.8 kmh 30.65 in1037.9 mb 0.00 in0.0 mm 0.00 in/hr0.0 mm/hr 0.00 in0.0 mm
07:20 AM 28.1°F-2.2°C 17.1°F-8.3°C 63% 1.0 mph 1.6 kmh 2.0 mph3.2 kmh 30.65 in1037.9 mb 0.00 in0.0 mm 0.00 in/hr0.0 mm/hr 0.00 in0.0 mm
07:15 AM 28.1°F-2.2°C 17.1°F-8.3°C 63% 2.0 mph N3.2 kmh N 3.0 mph4.8 kmh 30.65 in1037.9 mb 0.00 in0.0 mm 0.00 in/hr0.0 mm/hr 0.00 in0.0 mm
07:10 AM 28.1°F-2.2°C 17.1°F-8.3°C 63% Calm Calm 2.0 mph3.2 kmh 30.64 in1037.6 mb 0.00 in0.0 mm 0.00 in/hr0.0 mm/hr 0.00 in0.0 mm
07:05 AM 28.1°F-2.2°C 16.7°F-8.5°C 62% Calm Calm 1.0 mph1.6 kmh 30.64 in1037.6 mb 0.00 in0.0 mm 0.00 in/hr0.0 mm/hr 0.00 in0.0 mm
07:00 AM 28.2°F-2.1°C 17.2°F-8.2°C 63% Calm Calm 1.0 mph1.6 kmh 30.64 in1037.6 mb 0.00 in0.0 mm 0.00 in/hr0.0 mm/hr 0.00 in0.0 mm
06:55 AM 28.2°F-2.1°C 16.8°F-8.4°C 62% Calm Calm -- 30.64 in1037.6 mb 0.00 in0.0 mm 0.00 in/hr0.0 mm/hr 0.00 in0.0 mm
06:50 AM 28.4°F-2.0°C 16.6°F-8.6°C 61% Calm Calm 1.0 mph1.6 kmh 30.64 in1037.6 mb 0.00 in0.0 mm 0.00 in/hr0.0 mm/hr 0.00 in0.0 mm
06:45 AM 28.5°F-1.9°C 16.7°F-8.5°C 61% Calm Calm -- 30.64 in1037.6 mb 0.00 in0.0 mm 0.00 in/hr0.0 mm/hr 0.00 in0.0 mm
06:40 AM 28.5°F-1.9°C 16.4°F-8.7°C 60% Calm Calm 1.0 mph1.6 kmh 30.64 in1037.6 mb 0.00 in0.0 mm 0.00 in/hr0.0 mm/hr 0.00 in0.0 mm
06:35 AM 28.5°F-1.9°C 16.7°F-8.5°C 61% Calm Calm 1.0 mph1.6 kmh 30.64 in1037.6 mb 0.00 in0.0 mm 0.00 in/hr0.0 mm/hr 0.00 in0.0 mm
06:30 AM 28.7°F-1.8°C 16.5°F-8.6°C 60% Calm Calm 2.0 mph3.2 kmh 30.64 in1037.6 mb 0.00 in0.0 mm 0.00 in/hr0.0 mm/hr 0.00 in0.0 mm
06:25 AM 28.7°F-1.8°C 16.5°F-8.6°C 60% Calm Calm 3.0 mph4.8 kmh 30.63 in1037.3 mb 0.00 in0.0 mm 0.00 in/hr0.0 mm/hr 0.00 in0.0 mm
06:20 AM 28.7°F-1.8°C 16.5°F-8.6°C 60% 3.0 mph N4.8 kmh N 3.0 mph4.8 kmh 30.63 in1037.3 mb 0.00 in0.0 mm 0.00 in/hr0.0 mm/hr 0.00 in0.0 mm
06:15 AM 28.8°F-1.8°C 16.6°F-8.6°C 60% Calm Calm 1.0 mph1.6 kmh 30.63 in1037.3 mb 0.00 in0.0 mm 0.00 in/hr0.0 mm/hr 0.00 in0.0 mm
06:10 AM 28.8°F-1.8°C 16.3°F-8.7°C 59% Calm Calm 3.0 mph4.8 kmh 30.63 in1037.3 mb 0.00 in0.0 mm 0.00 in/hr0.0 mm/hr 0.00 in0.0 mm
06:05 AM 29.0°F-1.7°C 16.8°F-8.4°C 60% 1.0 mph NNW1.6 kmh NNW 1.0 mph1.6 kmh 30.63 in1037.3 mb 0.00 in0.0 mm 0.00 in/hr0.0 mm/hr 0.00 in0.0 mm
06:00 AM 29.0°F-1.7°C 16.4°F-8.7°C 59% Calm Calm 1.0 mph1.6 kmh 30.63 in1037.3 mb 0.00 in0.0 mm 0.00 in/hr0.0 mm/hr 0.00 in0.0 mm
05:55 AM 29.3°F-1.5°C 16.3°F-8.7°C 58% Calm Calm 1.0 mph1.6 kmh 30.63 in1037.3 mb 0.00 in0.0 mm 0.00 in/hr0.0 mm/hr 0.00 in0.0 mm
05:50 AM 29.4°F-1.4°C 16.8°F-8.4°C 59% Calm Calm 1.0 mph1.6 kmh 30.63 in1037.3 mb 0.00 in0.0 mm 0.00 in/hr0.0 mm/hr 0.00 in0.0 mm
05:45 AM 29.4°F-1.4°C 16.8°F-8.4°C 59% Calm Calm 2.0 mph3.2 kmh 30.63 in1037.3 mb 0.00 in0.0 mm 0.00 in/hr0.0 mm/hr 0.00 in0.0 mm
05:40 AM 29.5°F-1.4°C 15.7°F-9.1°C 56% Calm Calm 1.0 mph1.6 kmh 30.62 in1036.9 mb 0.00 in0.0 mm 0.00 in/hr0.0 mm/hr 0.00 in0.0 mm
05:35 AM 29.4°F-1.4°C 16.0°F-8.9°C 57% Calm Calm 3.0 mph4.8 kmh 30.62 in1036.9 mb 0.00 in0.0 mm 0.00 in/hr0.0 mm/hr 0.00 in0.0 mm
05:30 AM 29.4°F-1.4°C 16.4°F-8.7°C 58% 1.0 mph N1.6 kmh N 2.0 mph3.2 kmh 30.62 in1036.9 mb 0.00 in0.0 mm 0.00 in/hr0.0 mm/hr 0.00 in0.0 mm
05:25 AM 29.4°F-1.4°C 16.0°F-8.9°C 57% Calm Calm 2.0 mph3.2 kmh 30.61 in1036.6 mb 0.00 in0.0 mm 0.00 in/hr0.0 mm/hr 0.00 in0.0 mm
05:20 AM 29.4°F-1.4°C 16.4°F-8.7°C 58% Calm Calm 4.0 mph6.4 kmh 30.61 in1036.6 mb 0.00 in0.0 mm 0.00 in/hr0.0 mm/hr 0.00 in0.0 mm
05:15 AM 29.4°F-1.4°C 16.8°F-8.4°C 59% Calm Calm 3.0 mph4.8 kmh 30.61 in1036.6 mb 0.00 in0.0 mm 0.00 in/hr0.0 mm/hr 0.00 in0.0 mm
05:10 AM 29.5°F-1.4°C 16.5°F-8.6°C 58% Calm Calm 1.0 mph1.6 kmh 30.61 in1036.6 mb 0.00 in0.0 mm 0.00 in/hr0.0 mm/hr 0.00 in0.0 mm
05:05 AM 29.5°F-1.4°C 15.7°F-9.1°C 56% Calm Calm 1.0 mph1.6 kmh 30.61 in1036.6 mb 0.00 in0.0 mm 0.00 in/hr0.0 mm/hr 0.00 in0.0 mm
05:00 AM 29.7°F-1.3°C 16.3°F-8.7°C 57% Calm Calm 1.0 mph1.6 kmh 30.61 in1036.6 mb 0.00 in0.0 mm 0.00 in/hr0.0 mm/hr 0.00 in0.0 mm
04:55 AM 29.7°F-1.3°C 15.9°F-8.9°C 56% Calm Calm 2.0 mph3.2 kmh 30.60 in1036.2 mb 0.00 in0.0 mm 0.00 in/hr0.0 mm/hr 0.00 in0.0 mm
04:50 AM 29.8°F-1.2°C 16.4°F-8.7°C 57% Calm Calm 2.0 mph3.2 kmh 30.60 in1036.2 mb 0.00 in0.0 mm 0.00 in/hr0.0 mm/hr 0.00 in0.0 mm
04:45 AM 29.8°F-1.2°C 15.6°F-9.1°C 55% Calm Calm 3.0 mph4.8 kmh 30.60 in1036.2 mb 0.00 in0.0 mm 0.00 in/hr0.0 mm/hr 0.00 in0.0 mm
04:40 AM 29.8°F-1.2°C 16.4°F-8.7°C 57% 1.0 mph N1.6 kmh N 1.0 mph1.6 kmh 30.60 in1036.2 mb 0.00 in0.0 mm 0.00 in/hr0.0 mm/hr 0.00 in0.0 mm
04:35 AM 29.7°F-1.3°C 16.3°F-8.7°C 57% Calm Calm 2.0 mph3.2 kmh 30.60 in1036.2 mb 0.00 in0.0 mm 0.00 in/hr0.0 mm/hr 0.00 in0.0 mm
04:30 AM 29.7°F-1.3°C 16.3°F-8.7°C 57% Calm Calm 3.0 mph4.8 kmh 30.60 in1036.2 mb 0.00 in0.0 mm 0.00 in/hr0.0 mm/hr 0.00 in0.0 mm
04:25 AM 29.7°F-1.3°C 16.3°F-8.7°C 57% Calm Calm 1.0 mph1.6 kmh 30.59 in1035.9 mb 0.00 in0.0 mm 0.00 in/hr0.0 mm/hr 0.00 in0.0 mm
04:20 AM 29.4°F-1.4°C 16.4°F-8.7°C 58% 2.0 mph N3.2 kmh N 4.0 mph6.4 kmh 30.59 in1035.9 mb 0.00 in0.0 mm 0.00 in/hr0.0 mm/hr 0.00 in0.0 mm
04:15 AM 29.4°F-1.4°C 17.6°F-8.0°C 61% 3.0 mph NNE4.8 kmh NNE 4.0 mph6.4 kmh 30.59 in1035.9 mb 0.00 in0.0 mm 0.00 in/hr0.0 mm/hr 0.00 in0.0 mm
04:10 AM 29.4°F-1.4°C 17.6°F-8.0°C 61% Calm Calm 2.0 mph3.2 kmh 30.59 in1035.9 mb 0.00 in0.0 mm 0.00 in/hr0.0 mm/hr 0.00 in0.0 mm
04:05 AM 29.4°F-1.4°C 18.3°F-7.6°C 63% Calm Calm 1.0 mph1.6 kmh 30.59 in1035.9 mb 0.00 in0.0 mm 0.00 in/hr0.0 mm/hr 0.00 in0.0 mm
04:00 AM 29.4°F-1.4°C 18.0°F-7.8°C 62% Calm Calm 1.0 mph1.6 kmh 30.59 in1035.9 mb 0.00 in0.0 mm 0.00 in/hr0.0 mm/hr 0.52 in13.2 mm
03:55 AM 29.4°F-1.4°C 18.3°F-7.6°C 63% Calm Calm 1.0 mph1.6 kmh 30.58 in1035.6 mb 0.00 in0.0 mm 0.00 in/hr0.0 mm/hr 0.52 in13.2 mm
03:50 AM 29.5°F-1.4°C 18.1°F-7.7°C 62% Calm Calm 1.0 mph1.6 kmh 30.58 in1035.6 mb 0.00 in0.0 mm 0.00 in/hr0.0 mm/hr 0.52 in13.2 mm
03:45 AM 29.7°F-1.3°C 17.5°F-8.1°C 60% Calm Calm -- 30.58 in1035.6 mb 0.00 in0.0 mm 0.00 in/hr0.0 mm/hr 0.52 in13.2 mm
03:40 AM 29.7°F-1.3°C 18.2°F-7.7°C 62% Calm Calm -- 30.57 in1035.2 mb 0.00 in0.0 mm 0.00 in/hr0.0 mm/hr 0.52 in13.2 mm
03:35 AM 29.8°F-1.2°C 18.3°F-7.6°C 62% Calm Calm 1.0 mph1.6 kmh 30.57 in1035.2 mb 0.00 in0.0 mm 0.00 in/hr0.0 mm/hr 0.52 in13.2 mm
03:30 AM 29.8°F-1.2°C 19.1°F-7.2°C 64% Calm Calm 1.0 mph1.6 kmh 30.57 in1035.2 mb 0.00 in0.0 mm 0.00 in/hr0.0 mm/hr 0.52 in13.2 mm
03:25 AM 29.8°F-1.2°C 18.0°F-7.8°C 61% Calm Calm 1.0 mph1.6 kmh 30.57 in1035.2 mb 0.00 in0.0 mm 0.00 in/hr0.0 mm/hr 0.52 in13.2 mm
03:20 AM 30.0°F-1.1°C 18.2°F-7.7°C 61% Calm Calm -- 30.57 in1035.2 mb 0.00 in0.0 mm 0.00 in/hr0.0 mm/hr 0.52 in13.2 mm
03:15 AM 30.1°F-1.1°C 18.6°F-7.4°C 62% Calm Calm 2.0 mph3.2 kmh 30.57 in1035.2 mb 0.00 in0.0 mm 0.00 in/hr0.0 mm/hr 0.52 in13.2 mm
03:10 AM 30.1°F-1.1°C 19.4°F-7.0°C 64% 1.0 mph NW1.6 kmh NW 2.0 mph3.2 kmh 30.57 in1035.2 mb 0.00 in0.0 mm 0.00 in/hr0.0 mm/hr 0.52 in13.2 mm
03:05 AM 30.1°F-1.1°C 19.4°F-7.0°C 64% Calm Calm -- 30.57 in1035.2 mb 0.00 in0.0 mm 0.00 in/hr0.0 mm/hr 0.52 in13.2 mm
03:00 AM 30.3°F-0.9°C 18.8°F-7.3°C 62% Calm Calm -- 30.57 in1035.2 mb 0.00 in0.0 mm 0.00 in/hr0.0 mm/hr 0.52 in13.2 mm
02:55 AM 30.6°F-0.8°C 18.7°F-7.4°C 61% Calm Calm -- 30.56 in1034.9 mb 0.00 in0.0 mm 0.00 in/hr0.0 mm/hr 0.52 in13.2 mm
02:50 AM 30.7°F-0.7°C 18.4°F-7.6°C 60% Calm Calm -- 30.56 in1034.9 mb 0.00 in0.0 mm 0.00 in/hr0.0 mm/hr 0.52 in13.2 mm
02:45 AM 31.0°F-0.6°C 19.1°F-7.2°C 61% Calm Calm -- 30.56 in1034.9 mb 0.00 in0.0 mm 0.00 in/hr0.0 mm/hr 0.52 in13.2 mm
02:40 AM 31.3°F-0.4°C 17.8°F-7.9°C 57% Calm Calm 1.0 mph1.6 kmh 30.55 in1034.5 mb 0.00 in0.0 mm 0.00 in/hr0.0 mm/hr 0.52 in13.2 mm
02:35 AM 31.8°F-0.1°C 18.7°F-7.4°C 58% Calm Calm 1.0 mph1.6 kmh 30.55 in1034.5 mb 0.00 in0.0 mm 0.00 in/hr0.0 mm/hr 0.52 in13.2 mm
02:30 AM 32.1°F0.1°C 18.1°F-7.7°C 56% Calm Calm -- 30.55 in1034.5 mb 0.00 in0.0 mm 0.00 in/hr0.0 mm/hr 0.52 in13.2 mm
02:25 AM 32.4°F0.2°C 17.6°F-8.0°C 54% Calm Calm 1.0 mph1.6 kmh 30.55 in1034.5 mb 0.00 in0.0 mm 0.00 in/hr0.0 mm/hr 0.52 in13.2 mm
02:20 AM 32.5°F0.3°C 17.2°F-8.2°C 53% Calm Calm 1.0 mph1.6 kmh 30.55 in1034.5 mb 0.00 in0.0 mm 0.00 in/hr0.0 mm/hr 0.52 in13.2 mm
02:15 AM 32.8°F0.4°C 16.2°F-8.8°C 50% Calm Calm 1.0 mph1.6 kmh 30.55 in1034.5 mb 0.00 in0.0 mm 0.00 in/hr0.0 mm/hr 0.52 in13.2 mm
02:10 AM 32.9°F0.5°C 16.7°F-8.5°C 51% Calm Calm 4.0 mph6.4 kmh 30.54 in1034.2 mb 0.00 in0.0 mm 0.00 in/hr0.0 mm/hr 0.52 in13.2 mm
02:05 AM 33.1°F0.6°C 17.4°F-8.1°C 52% Calm Calm 4.0 mph6.4 kmh 30.54 in1034.2 mb 0.00 in0.0 mm 0.00 in/hr0.0 mm/hr 0.52 in13.2 mm
02:00 AM 33.2°F0.7°C 16.1°F-8.8°C 49% Calm Calm 2.0 mph3.2 kmh 30.54 in1034.2 mb 0.00 in0.0 mm 0.00 in/hr0.0 mm/hr 0.52 in13.2 mm
01:55 AM 33.4°F0.8°C 16.3°F-8.7°C 49% 1.0 mph NW1.6 kmh NW 3.0 mph4.8 kmh 30.54 in1034.2 mb 0.00 in0.0 mm 0.00 in/hr0.0 mm/hr 0.52 in13.2 mm
01:50 AM 33.7°F0.9°C 15.6°F-9.1°C 47% Calm Calm 1.0 mph1.6 kmh 30.54 in1034.2 mb 0.00 in0.0 mm 0.00 in/hr0.0 mm/hr 0.52 in13.2 mm
01:45 AM 34.0°F1.1°C 15.9°F-8.9°C 47% Calm Calm 2.0 mph3.2 kmh 30.54 in1034.2 mb 0.00 in0.0 mm 0.00 in/hr0.0 mm/hr 0.52 in13.2 mm
01:40 AM 34.1°F1.2°C 15.5°F-9.2°C 46% Calm Calm 4.0 mph6.4 kmh 30.54 in1034.2 mb 0.00 in0.0 mm 0.00 in/hr0.0 mm/hr 0.52 in13.2 mm
01:35 AM 34.3°F1.3°C 15.1°F-9.4°C 45% 1.0 mph N1.6 kmh N 3.0 mph4.8 kmh 30.54 in1034.2 mb 0.00 in0.0 mm 0.00 in/hr0.0 mm/hr 0.52 in13.2 mm
01:30 AM 34.3°F1.3°C 15.6°F-9.1°C 46% 1.0 mph N1.6 kmh N 3.0 mph4.8 kmh 30.54 in1034.2 mb 0.00 in0.0 mm 0.00 in/hr0.0 mm/hr 0.52 in13.2 mm
01:25 AM 34.4°F1.3°C 15.2°F-9.3°C 45% 1.0 mph N1.6 kmh N 3.0 mph4.8 kmh 30.53 in1033.9 mb 0.00 in0.0 mm 0.00 in/hr0.0 mm/hr 0.52 in13.2 mm
01:20 AM 34.6°F1.4°C 14.9°F-9.5°C 44% 1.0 mph N1.6 kmh N 8.0 mph12.9 kmh 30.53 in1033.9 mb 0.00 in0.0 mm 0.00 in/hr0.0 mm/hr 0.52 in13.2 mm
01:15 AM 34.6°F1.4°C 15.9°F-8.9°C 46% 1.0 mph N1.6 kmh N 4.0 mph6.4 kmh 30.53 in1033.9 mb 0.00 in0.0 mm 0.00 in/hr0.0 mm/hr 0.52 in13.2 mm
01:10 AM 34.6°F1.4°C 15.4°F-9.2°C 45% 2.0 mph NNW3.2 kmh NNW 5.0 mph8.0 kmh 30.52 in1033.5 mb 0.00 in0.0 mm 0.00 in/hr0.0 mm/hr 0.52 in13.2 mm
01:05 AM 34.4°F1.3°C 14.7°F-9.6°C 44% Calm Calm 6.0 mph9.7 kmh 30.52 in1033.5 mb 0.00 in0.0 mm 0.00 in/hr0.0 mm/hr 0.52 in13.2 mm
01:00 AM 34.4°F1.3°C 16.7°F-8.5°C 48% 4.0 mph N6.4 kmh N 5.0 mph8.0 kmh 30.52 in1033.5 mb 0.00 in0.0 mm 0.00 in/hr0.0 mm/hr 0.52 in13.2 mm
12:55 AM 34.7°F1.5°C 17.0°F-8.3°C 48% Calm Calm 2.0 mph3.2 kmh 30.51 in1033.2 mb 0.00 in0.0 mm 0.00 in/hr0.0 mm/hr 0.52 in13.2 mm
12:50 AM 34.9°F1.6°C 16.2°F-8.8°C 46% Calm Calm 5.0 mph8.0 kmh 30.51 in1033.2 mb 0.00 in0.0 mm 0.00 in/hr0.0 mm/hr 0.52 in13.2 mm
12:45 AM 34.9°F1.6°C 15.7°F-9.1°C 45% Calm Calm 4.0 mph6.4 kmh 30.51 in1033.2 mb 0.00 in0.0 mm 0.00 in/hr0.0 mm/hr 0.52 in13.2 mm
12:40 AM 35.0°F1.7°C 17.3°F-8.2°C 48% Calm Calm 2.0 mph3.2 kmh 30.50 in1032.8 mb 0.00 in0.0 mm 0.00 in/hr0.0 mm/hr 0.52 in13.2 mm
12:35 AM 35.3°F1.8°C 16.1°F-8.8°C 45% Calm Calm 3.0 mph4.8 kmh 30.50 in1032.8 mb 0.00 in0.0 mm 0.00 in/hr0.0 mm/hr 0.52 in13.2 mm
12:30 AM 35.5°F1.9°C 16.7°F-8.5°C 46% Calm Calm 5.0 mph8.0 kmh 30.50 in1032.8 mb 0.00 in0.0 mm 0.00 in/hr0.0 mm/hr 0.52 in13.2 mm
12:25 AM 35.8°F2.1°C 18.0°F-7.8°C 48% Calm Calm 1.0 mph1.6 kmh 30.49 in1032.5 mb 0.00 in0.0 mm 0.00 in/hr0.0 mm/hr 0.52 in13.2 mm
12:20 AM 36.0°F2.2°C 16.2°F-8.8°C 44% Calm Calm 2.0 mph3.2 kmh 30.49 in1032.5 mb 0.00 in0.0 mm 0.00 in/hr0.0 mm/hr 0.52 in13.2 mm
12:15 AM 36.2°F2.3°C 15.8°F-9.0°C 43% Calm Calm 5.0 mph8.0 kmh 30.49 in1032.5 mb 0.00 in0.0 mm 0.00 in/hr0.0 mm/hr 0.52 in13.2 mm
12:10 AM 36.5°F2.5°C 17.7°F-7.9°C 46% 2.0 mph W3.2 kmh W 2.0 mph3.2 kmh 30.48 in1032.2 mb 0.00 in0.0 mm 0.00 in/hr0.0 mm/hr 0.52 in13.2 mm
12:05 AM 36.8°F2.7°C 16.4°F-8.7°C 43% 2.0 mph NNW3.2 kmh NNW 3.0 mph4.8 kmh 30.48 in1032.2 mb 0.00 in0.0 mm 0.00 in/hr0.0 mm/hr 0.52 in13.2 mm
12:00 AM 36.9°F2.7°C 15.4°F-9.2°C 41% 1.0 mph NNW1.6 kmh NNW 7.0 mph11.3 kmh 30.48 in1032.2 mb 0.00 in0.0 mm 0.00 in/hr0.0 mm/hr 0.52 in13.2 mm